sensor_id;sensor_type;location;lat;lon;timestamp;P1;durP1;ratioP1;P2;durP2;ratioP2
11431;SDS011;5772;50.940;6.782;2023-04-30T00:02:07;33.17;;;30.67;;
11431;SDS011;5772;50.940;6.782;2023-04-30T00:04:33;35.63;;;33.00;;
11431;SDS011;5772;50.940;6.782;2023-04-30T00:06:58;34.30;;;31.27;;
11431;SDS011;5772;50.940;6.782;2023-04-30T00:09:23;35.10;;;32.27;;
11431;SDS011;5772;50.940;6.782;2023-04-30T00:11:49;33.30;;;31.00;;
11431;SDS011;5772;50.940;6.782;2023-04-30T00:14:14;35.47;;;32.57;;
11431;SDS011;5772;50.940;6.782;2023-04-30T00:16:41;32.97;;;30.67;;
11431;SDS011;5772;50.940;6.782;2023-04-30T00:19:06;34.37;;;31.70;;
11431;SDS011;5772;50.940;6.782;2023-04-30T00:21:32;34.30;;;31.57;;
11431;SDS011;5772;50.940;6.782;2023-04-30T00:23:57;34.13;;;31.53;;
11431;SDS011;5772;50.940;6.782;2023-04-30T00:26:22;34.17;;;31.67;;
11431;SDS011;5772;50.940;6.782;2023-04-30T00:28:48;32.43;;;30.03;;
11431;SDS011;5772;50.940;6.782;2023-04-30T00:31:13;34.33;;;31.80;;
11431;SDS011;5772;50.940;6.782;2023-04-30T00:33:40;34.90;;;32.23;;
11431;SDS011;5772;50.940;6.782;2023-04-30T00:36:05;34.77;;;32.23;;
11431;SDS011;5772;50.940;6.782;2023-04-30T00:38:31;35.57;;;32.50;;
11431;SDS011;5772;50.940;6.782;2023-04-30T00:40:56;35.10;;;32.43;;
11431;SDS011;5772;50.940;6.782;2023-04-30T00:43:22;35.07;;;32.63;;
11431;SDS011;5772;50.940;6.782;2023-04-30T00:45:47;34.70;;;31.90;;
11431;SDS011;5772;50.940;6.782;2023-04-30T00:48:12;33.70;;;31.03;;
11431;SDS011;5772;50.940;6.782;2023-04-30T00:50:39;32.57;;;30.17;;
11431;SDS011;5772;50.940;6.782;2023-04-30T00:53:05;33.47;;;31.03;;
11431;SDS011;5772;50.940;6.782;2023-04-30T00:55:31;33.50;;;31.00;;
11431;SDS011;5772;50.940;6.782;2023-04-30T00:57:56;36.03;;;33.07;;
11431;SDS011;5772;50.940;6.782;2023-04-30T01:00:22;32.77;;;30.07;;
11431;SDS011;5772;50.940;6.782;2023-04-30T01:02:48;33.77;;;31.37;;
11431;SDS011;5772;50.940;6.782;2023-04-30T01:05:13;34.00;;;31.33;;
11431;SDS011;5772;50.940;6.782;2023-04-30T01:07:40;33.80;;;31.13;;
11431;SDS011;5772;50.940;6.782;2023-04-30T01:10:06;33.93;;;31.47;;
11431;SDS011;5772;50.940;6.782;2023-04-30T01:12:34;33.93;;;31.40;;
11431;SDS011;5772;50.940;6.782;2023-04-30T01:15:03;34.07;;;31.90;;
11431;SDS011;5772;50.940;6.782;2023-04-30T01:17:33;34.93;;;32.30;;
11431;SDS011;5772;50.940;6.782;2023-04-30T01:20:01;37.53;;;34.37;;
11431;SDS011;5772;50.940;6.782;2023-04-30T01:22:33;32.90;;;30.40;;
11431;SDS011;5772;50.940;6.782;2023-04-30T01:25:10;33.27;;;30.77;;
11431;SDS011;5772;50.940;6.782;2023-04-30T01:27:52;33.60;;;31.17;;
11431;SDS011;5772;50.940;6.782;2023-04-30T01:30:24;35.60;;;32.67;;
11431;SDS011;5772;50.940;6.782;2023-04-30T01:32:50;32.50;;;30.27;;
11431;SDS011;5772;50.940;6.782;2023-04-30T01:35:15;35.17;;;32.47;;
11431;SDS011;5772;50.940;6.782;2023-04-30T01:37:43;33.27;;;31.03;;
11431;SDS011;5772;50.940;6.782;2023-04-30T01:40:20;35.07;;;32.67;;
11431;SDS011;5772;50.940;6.782;2023-04-30T01:42:50;36.37;;;33.60;;
11431;SDS011;5772;50.940;6.782;2023-04-30T01:45:22;36.17;;;33.87;;
11431;SDS011;5772;50.940;6.782;2023-04-30T01:48:01;37.40;;;35.00;;
11431;SDS011;5772;50.940;6.782;2023-04-30T01:50:31;36.20;;;33.77;;
11431;SDS011;5772;50.940;6.782;2023-04-30T01:53:01;34.13;;;32.00;;
11431;SDS011;5772;50.940;6.782;2023-04-30T01:55:27;36.03;;;33.53;;
11431;SDS011;5772;50.940;6.782;2023-04-30T01:57:56;35.57;;;33.47;;
11431;SDS011;5772;50.940;6.782;2023-04-30T02:00:23;36.70;;;34.43;;
11431;SDS011;5772;50.940;6.782;2023-04-30T02:02:48;38.03;;;35.73;;
11431;SDS011;5772;50.940;6.782;2023-04-30T02:05:13;37.33;;;34.93;;
11431;SDS011;5772;50.940;6.782;2023-04-30T02:07:39;35.60;;;33.27;;
11431;SDS011;5772;50.940;6.782;2023-04-30T02:10:06;37.67;;;35.07;;
11431;SDS011;5772;50.940;6.782;2023-04-30T02:12:32;37.13;;;34.47;;
11431;SDS011;5772;50.940;6.782;2023-04-30T02:14:58;34.87;;;32.67;;
11431;SDS011;5772;50.940;6.782;2023-04-30T02:19:59;35.70;;;33.20;;
11431;SDS011;5772;50.940;6.782;2023-04-30T02:22:25;34.07;;;31.97;;
11431;SDS011;5772;50.940;6.782;2023-04-30T02:24:50;36.70;;;34.07;;
11431;SDS011;5772;50.940;6.782;2023-04-30T02:27:16;36.43;;;34.03;;
11431;SDS011;5772;50.940;6.782;2023-04-30T02:29:41;36.27;;;33.50;;
11431;SDS011;5772;50.940;6.782;2023-04-30T02:32:08;34.43;;;32.17;;
11431;SDS011;5772;50.940;6.782;2023-04-30T02:34:33;36.63;;;34.30;;
11431;SDS011;5772;50.940;6.782;2023-04-30T02:36:59;37.30;;;34.63;;
11431;SDS011;5772;50.940;6.782;2023-04-30T02:39:24;34.80;;;32.50;;
11431;SDS011;5772;50.940;6.782;2023-04-30T02:41:49;36.07;;;33.80;;
11431;SDS011;5772;50.940;6.782;2023-04-30T02:44:15;32.87;;;30.57;;
11431;SDS011;5772;50.940;6.782;2023-04-30T02:46:40;34.37;;;32.10;;
11431;SDS011;5772;50.940;6.782;2023-04-30T02:49:07;33.00;;;30.47;;
11431;SDS011;5772;50.940;6.782;2023-04-30T02:51:32;34.23;;;32.03;;
11431;SDS011;5772;50.940;6.782;2023-04-30T02:53:58;35.33;;;32.87;;
11431;SDS011;5772;50.940;6.782;2023-04-30T02:56:23;34.23;;;31.97;;
11431;SDS011;5772;50.940;6.782;2023-04-30T02:58:48;35.47;;;32.97;;
11431;SDS011;5772;50.940;6.782;2023-04-30T03:01:14;34.37;;;32.07;;
11431;SDS011;5772;50.940;6.782;2023-04-30T03:03:39;34.83;;;32.37;;
11431;SDS011;5772;50.940;6.782;2023-04-30T03:06:06;35.83;;;33.23;;
11431;SDS011;5772;50.940;6.782;2023-04-30T03:08:31;35.03;;;32.63;;
11431;SDS011;5772;50.940;6.782;2023-04-30T03:10:57;32.40;;;30.40;;
11431;SDS011;5772;50.940;6.782;2023-04-30T03:13:22;33.27;;;31.10;;
11431;SDS011;5772;50.940;6.782;2023-04-30T03:15:47;38.53;;;36.23;;
11431;SDS011;5772;50.940;6.782;2023-04-30T03:18:13;33.10;;;30.60;;
11431;SDS011;5772;50.940;6.782;2023-04-30T03:20:38;35.80;;;33.23;;
11431;SDS011;5772;50.940;6.782;2023-04-30T03:23:05;33.60;;;31.47;;
11431;SDS011;5772;50.940;6.782;2023-04-30T03:25:30;35.53;;;33.10;;
11431;SDS011;5772;50.940;6.782;2023-04-30T03:27:55;31.00;;;28.77;;
11431;SDS011;5772;50.940;6.782;2023-04-30T03:30:21;32.50;;;30.03;;
11431;SDS011;5772;50.940;6.782;2023-04-30T03:32:46;30.80;;;28.53;;
11431;SDS011;5772;50.940;6.782;2023-04-30T03:35:11;32.63;;;30.10;;
11431;SDS011;5772;50.940;6.782;2023-04-30T03:37:37;30.10;;;28.10;;
11431;SDS011;5772;50.940;6.782;2023-04-30T03:40:04;31.73;;;29.47;;
11431;SDS011;5772;50.940;6.782;2023-04-30T03:42:30;30.33;;;28.10;;
11431;SDS011;5772;50.940;6.782;2023-04-30T03:44:55;31.37;;;29.37;;
11431;SDS011;5772;50.940;6.782;2023-04-30T03:47:21;32.30;;;30.17;;
11431;SDS011;5772;50.940;6.782;2023-04-30T03:49:46;29.87;;;27.57;;
11431;SDS011;5772;50.940;6.782;2023-04-30T03:52:11;29.87;;;27.57;;
11431;SDS011;5772;50.940;6.782;2023-04-30T03:54:37;30.00;;;28.03;;
11431;SDS011;5772;50.940;6.782;2023-04-30T03:57:03;30.83;;;28.73;;
11431;SDS011;5772;50.940;6.782;2023-04-30T03:59:29;32.73;;;30.20;;
11431;SDS011;5772;50.940;6.782;2023-04-30T04:01:54;32.50;;;30.23;;
11431;SDS011;5772;50.940;6.782;2023-04-30T04:04:20;34.03;;;31.30;;
11431;SDS011;5772;50.940;6.782;2023-04-30T04:06:45;31.97;;;29.73;;
11431;SDS011;5772;50.940;6.782;2023-04-30T04:09:10;32.63;;;30.33;;
11431;SDS011;5772;50.940;6.782;2023-04-30T04:11:36;34.20;;;31.57;;
11431;SDS011;5772;50.940;6.782;2023-04-30T04:14:02;31.53;;;29.43;;
11431;SDS011;5772;50.940;6.782;2023-04-30T04:16:28;31.00;;;28.80;;
11431;SDS011;5772;50.940;6.782;2023-04-30T04:18:53;32.03;;;29.70;;
11431;SDS011;5772;50.940;6.782;2023-04-30T04:21:18;33.27;;;30.87;;
11431;SDS011;5772;50.940;6.782;2023-04-30T04:23:45;33.27;;;30.83;;
11431;SDS011;5772;50.940;6.782;2023-04-30T04:26:10;33.53;;;30.83;;
11431;SDS011;5772;50.940;6.782;2023-04-30T04:28:35;32.07;;;29.57;;
11431;SDS011;5772;50.940;6.782;2023-04-30T04:31:02;33.17;;;30.77;;
11431;SDS011;5772;50.940;6.782;2023-04-30T04:33:27;30.40;;;28.13;;
11431;SDS011;5772;50.940;6.782;2023-04-30T04:35:53;34.17;;;31.77;;
11431;SDS011;5772;50.940;6.782;2023-04-30T04:38:18;31.53;;;29.13;;
11431;SDS011;5772;50.940;6.782;2023-04-30T04:40:49;34.37;;;31.33;;
11431;SDS011;5772;50.940;6.782;2023-04-30T04:43:15;35.53;;;32.70;;
11431;SDS011;5772;50.940;6.782;2023-04-30T04:45:40;35.50;;;32.87;;
11431;SDS011;5772;50.940;6.782;2023-04-30T04:48:07;33.97;;;31.70;;
11431;SDS011;5772;50.940;6.782;2023-04-30T04:50:32;34.47;;;31.87;;
11431;SDS011;5772;50.940;6.782;2023-04-30T04:52:58;33.53;;;31.03;;
11431;SDS011;5772;50.940;6.782;2023-04-30T04:55:23;35.93;;;33.33;;
11431;SDS011;5772;50.940;6.782;2023-04-30T04:57:48;35.17;;;32.70;;
11431;SDS011;5772;50.940;6.782;2023-04-30T05:00:14;37.50;;;34.57;;
11431;SDS011;5772;50.940;6.782;2023-04-30T05:02:39;32.63;;;30.30;;
11431;SDS011;5772;50.940;6.782;2023-04-30T05:05:06;31.57;;;29.37;;
11431;SDS011;5772;50.940;6.782;2023-04-30T05:07:32;34.23;;;31.43;;
11431;SDS011;5772;50.940;6.782;2023-04-30T05:09:57;33.83;;;31.40;;
11431;SDS011;5772;50.940;6.782;2023-04-30T05:12:23;35.10;;;32.37;;
11431;SDS011;5772;50.940;6.782;2023-04-30T05:14:48;34.30;;;31.97;;
11431;SDS011;5772;50.940;6.782;2023-04-30T05:17:14;36.97;;;34.17;;
11431;SDS011;5772;50.940;6.782;2023-04-30T05:19:39;37.77;;;35.13;;
11431;SDS011;5772;50.940;6.782;2023-04-30T05:22:06;36.73;;;34.17;;
11431;SDS011;5772;50.940;6.782;2023-04-30T05:24:31;38.53;;;35.73;;
11431;SDS011;5772;50.940;6.782;2023-04-30T05:26:56;39.20;;;36.40;;
11431;SDS011;5772;50.940;6.782;2023-04-30T05:29:22;39.90;;;37.03;;
11431;SDS011;5772;50.940;6.782;2023-04-30T05:31:47;42.60;;;39.50;;
11431;SDS011;5772;50.940;6.782;2023-04-30T05:34:12;37.90;;;35.33;;
11431;SDS011;5772;50.940;6.782;2023-04-30T05:36:38;40.83;;;38.23;;
11431;SDS011;5772;50.940;6.782;2023-04-30T05:39:04;41.10;;;38.40;;
11431;SDS011;5772;50.940;6.782;2023-04-30T05:41:30;42.87;;;40.07;;
11431;SDS011;5772;50.940;6.782;2023-04-30T05:43:55;44.17;;;41.17;;
11431;SDS011;5772;50.940;6.782;2023-04-30T05:46:20;43.87;;;40.57;;
11431;SDS011;5772;50.940;6.782;2023-04-30T05:48:46;41.70;;;39.20;;
11431;SDS011;5772;50.940;6.782;2023-04-30T05:51:11;41.33;;;38.63;;
11431;SDS011;5772;50.940;6.782;2023-04-30T05:53:36;40.87;;;38.20;;
11431;SDS011;5772;50.940;6.782;2023-04-30T05:56:03;36.23;;;33.83;;
11431;SDS011;5772;50.940;6.782;2023-04-30T05:58:29;35.97;;;33.50;;
11431;SDS011;5772;50.940;6.782;2023-04-30T06:00:54;34.20;;;31.40;;
11431;SDS011;5772;50.940;6.782;2023-04-30T06:03:19;33.17;;;30.77;;
11431;SDS011;5772;50.940;6.782;2023-04-30T06:05:45;32.33;;;29.80;;
11431;SDS011;5772;50.940;6.782;2023-04-30T06:08:11;32.03;;;29.73;;
11431;SDS011;5772;50.940;6.782;2023-04-30T06:10:36;33.20;;;30.83;;
11431;SDS011;5772;50.940;6.782;2023-04-30T06:13:03;34.73;;;32.20;;
11431;SDS011;5772;50.940;6.782;2023-04-30T06:15:29;33.57;;;31.03;;
11431;SDS011;5772;50.940;6.782;2023-04-30T06:17:54;33.27;;;31.07;;
11431;SDS011;5772;50.940;6.782;2023-04-30T06:20:19;35.17;;;32.83;;
11431;SDS011;5772;50.940;6.782;2023-04-30T06:22:45;37.40;;;34.83;;
11431;SDS011;5772;50.940;6.782;2023-04-30T06:25:10;37.83;;;34.70;;
11431;SDS011;5772;50.940;6.782;2023-04-30T06:27:35;30.33;;;27.83;;
11431;SDS011;5772;50.940;6.782;2023-04-30T06:30:02;29.60;;;27.40;;
11431;SDS011;5772;50.940;6.782;2023-04-30T06:32:28;27.33;;;25.43;;
11431;SDS011;5772;50.940;6.782;2023-04-30T06:34:54;24.87;;;23.20;;
11431;SDS011;5772;50.940;6.782;2023-04-30T06:37:19;26.17;;;24.40;;
11431;SDS011;5772;50.940;6.782;2023-04-30T06:39:45;28.13;;;26.07;;
11431;SDS011;5772;50.940;6.782;2023-04-30T06:42:10;28.20;;;25.87;;
11431;SDS011;5772;50.940;6.782;2023-04-30T06:44:35;26.37;;;24.37;;
11431;SDS011;5772;50.940;6.782;2023-04-30T06:47:02;23.70;;;22.07;;
11431;SDS011;5772;50.940;6.782;2023-04-30T06:49:27;25.13;;;23.27;;
11431;SDS011;5772;50.940;6.782;2023-04-30T06:51:53;23.87;;;22.27;;
11431;SDS011;5772;50.940;6.782;2023-04-30T06:54:18;24.87;;;22.93;;
11431;SDS011;5772;50.940;6.782;2023-04-30T06:56:43;22.83;;;21.23;;
11431;SDS011;5772;50.940;6.782;2023-04-30T06:59:09;23.03;;;21.60;;
11431;SDS011;5772;50.940;6.782;2023-04-30T07:01:34;24.20;;;22.60;;
11431;SDS011;5772;50.940;6.782;2023-04-30T07:04:01;25.20;;;23.67;;
11431;SDS011;5772;50.940;6.782;2023-04-30T07:06:26;22.87;;;21.37;;
11431;SDS011;5772;50.940;6.782;2023-04-30T07:08:52;23.97;;;22.03;;
11431;SDS011;5772;50.940;6.782;2023-04-30T07:11:17;26.97;;;24.90;;
11431;SDS011;5772;50.940;6.782;2023-04-30T07:13:42;26.97;;;25.17;;
11431;SDS011;5772;50.940;6.782;2023-04-30T07:16:08;25.30;;;23.47;;
11431;SDS011;5772;50.940;6.782;2023-04-30T07:18:33;26.50;;;24.87;;
11431;SDS011;5772;50.940;6.782;2023-04-30T07:21:00;24.03;;;22.43;;
11431;SDS011;5772;50.940;6.782;2023-04-30T07:23:28;23.20;;;21.53;;
11431;SDS011;5772;50.940;6.782;2023-04-30T07:25:54;21.50;;;19.93;;
11431;SDS011;5772;50.940;6.782;2023-04-30T07:28:19;21.17;;;19.57;;
11431;SDS011;5772;50.940;6.782;2023-04-30T07:30:45;21.30;;;19.80;;
11431;SDS011;5772;50.940;6.782;2023-04-30T07:33:10;23.10;;;21.53;;
11431;SDS011;5772;50.940;6.782;2023-04-30T07:35:36;22.53;;;20.93;;
11431;SDS011;5772;50.940;6.782;2023-04-30T07:38:03;20.73;;;19.43;;
11431;SDS011;5772;50.940;6.782;2023-04-30T07:40:28;22.67;;;21.07;;
11431;SDS011;5772;50.940;6.782;2023-04-30T07:42:54;22.80;;;21.13;;
11431;SDS011;5772;50.940;6.782;2023-04-30T07:45:19;23.00;;;21.63;;
11431;SDS011;5772;50.940;6.782;2023-04-30T07:47:45;21.40;;;20.02;;
11431;SDS011;5772;50.940;6.782;2023-04-30T07:50:10;21.10;;;19.48;;
11431;SDS011;5772;50.940;6.782;2023-04-30T07:52:35;21.95;;;20.30;;
11431;SDS011;5772;50.940;6.782;2023-04-30T07:55:02;21.42;;;19.77;;
11431;SDS011;5772;50.940;6.782;2023-04-30T07:57:28;20.70;;;19.20;;
11431;SDS011;5772;50.940;6.782;2023-04-30T07:59:53;21.00;;;19.48;;
11431;SDS011;5772;50.940;6.782;2023-04-30T08:02:19;19.33;;;17.92;;
11431;SDS011;5772;50.940;6.782;2023-04-30T08:04:44;19.90;;;18.40;;
11431;SDS011;5772;50.940;6.782;2023-04-30T08:07:09;20.95;;;19.23;;
11431;SDS011;5772;50.940;6.782;2023-04-30T08:09:35;19.98;;;18.45;;
11431;SDS011;5772;50.940;6.782;2023-04-30T08:12:01;20.02;;;18.63;;
11431;SDS011;5772;50.940;6.782;2023-04-30T08:14:27;20.65;;;19.23;;
11431;SDS011;5772;50.940;6.782;2023-04-30T08:16:52;22.27;;;20.73;;
11431;SDS011;5772;50.940;6.782;2023-04-30T08:19:18;22.55;;;20.90;;
11431;SDS011;5772;50.940;6.782;2023-04-30T08:21:43;21.65;;;20.15;;
11431;SDS011;5772;50.940;6.782;2023-04-30T08:24:08;19.55;;;17.95;;
11431;SDS011;5772;50.940;6.782;2023-04-30T08:26:34;18.98;;;17.70;;
11431;SDS011;5772;50.940;6.782;2023-04-30T08:29:01;19.40;;;17.85;;
11431;SDS011;5772;50.940;6.782;2023-04-30T08:31:26;19.13;;;17.92;;
11431;SDS011;5772;50.940;6.782;2023-04-30T08:33:52;19.63;;;18.30;;
11431;SDS011;5772;50.940;6.782;2023-04-30T08:36:17;19.25;;;18.05;;
11431;SDS011;5772;50.940;6.782;2023-04-30T08:38:42;19.10;;;17.58;;
11431;SDS011;5772;50.940;6.782;2023-04-30T08:41:08;19.65;;;18.25;;
11431;SDS011;5772;50.940;6.782;2023-04-30T08:43:35;20.00;;;18.77;;
11431;SDS011;5772;50.940;6.782;2023-04-30T08:46:02;19.13;;;17.67;;
11431;SDS011;5772;50.940;6.782;2023-04-30T08:48:28;18.40;;;17.05;;
11431;SDS011;5772;50.940;6.782;2023-04-30T08:50:53;19.02;;;17.80;;
11431;SDS011;5772;50.940;6.782;2023-04-30T08:53:19;18.90;;;17.48;;
11431;SDS011;5772;50.940;6.782;2023-04-30T08:55:45;20.38;;;18.88;;
11431;SDS011;5772;50.940;6.782;2023-04-30T08:58:10;18.92;;;17.67;;
11431;SDS011;5772;50.940;6.782;2023-04-30T09:00:36;19.63;;;18.35;;
11431;SDS011;5772;50.940;6.782;2023-04-30T09:03:04;19.52;;;18.23;;
11431;SDS011;5772;50.940;6.782;2023-04-30T09:05:29;18.85;;;17.73;;
11431;SDS011;5772;50.940;6.782;2023-04-30T09:07:55;19.23;;;17.92;;
11431;SDS011;5772;50.940;6.782;2023-04-30T09:10:20;19.58;;;18.48;;
11431;SDS011;5772;50.940;6.782;2023-04-30T09:12:57;19.67;;;18.38;;
11431;SDS011;5772;50.940;6.782;2023-04-30T09:15:22;17.98;;;16.80;;
11431;SDS011;5772;50.940;6.782;2023-04-30T09:17:48;19.08;;;17.85;;
11431;SDS011;5772;50.940;6.782;2023-04-30T09:20:14;19.20;;;17.70;;
11431;SDS011;5772;50.940;6.782;2023-04-30T09:22:40;20.50;;;18.95;;
11431;SDS011;5772;50.940;6.782;2023-04-30T09:25:06;16.83;;;15.90;;
11431;SDS011;5772;50.940;6.782;2023-04-30T09:27:33;17.10;;;16.10;;
11431;SDS011;5772;50.940;6.782;2023-04-30T09:29:58;18.35;;;17.23;;
11431;SDS011;5772;50.940;6.782;2023-04-30T09:32:23;18.58;;;17.38;;
11431;SDS011;5772;50.940;6.782;2023-04-30T09:34:49;18.73;;;17.48;;
11431;SDS011;5772;50.940;6.782;2023-04-30T09:37:16;19.30;;;18.13;;
11431;SDS011;5772;50.940;6.782;2023-04-30T09:39:51;19.10;;;18.00;;
11431;SDS011;5772;50.940;6.782;2023-04-30T09:42:17;18.90;;;17.73;;
11431;SDS011;5772;50.940;6.782;2023-04-30T09:44:43;17.48;;;16.48;;
11431;SDS011;5772;50.940;6.782;2023-04-30T09:47:11;19.00;;;17.85;;
11431;SDS011;5772;50.940;6.782;2023-04-30T09:49:40;19.35;;;18.25;;
11431;SDS011;5772;50.940;6.782;2023-04-30T09:52:06;17.02;;;15.77;;
11431;SDS011;5772;50.940;6.782;2023-04-30T09:54:33;15.82;;;14.90;;
11431;SDS011;5772;50.940;6.782;2023-04-30T09:57:00;15.88;;;14.88;;
11431;SDS011;5772;50.940;6.782;2023-04-30T09:59:27;15.20;;;14.48;;
11431;SDS011;5772;50.940;6.782;2023-04-30T10:01:54;16.88;;;15.98;;
11431;SDS011;5772;50.940;6.782;2023-04-30T10:04:19;18.35;;;17.33;;
11431;SDS011;5772;50.940;6.782;2023-04-30T10:06:45;17.73;;;16.83;;
11431;SDS011;5772;50.940;6.782;2023-04-30T10:09:11;18.20;;;17.30;;
11431;SDS011;5772;50.940;6.782;2023-04-30T10:11:39;16.67;;;15.77;;
11431;SDS011;5772;50.940;6.782;2023-04-30T10:14:07;15.80;;;14.90;;
11431;SDS011;5772;50.940;6.782;2023-04-30T10:16:36;16.15;;;15.18;;
11431;SDS011;5772;50.940;6.782;2023-04-30T10:19:06;16.00;;;15.00;;
11431;SDS011;5772;50.940;6.782;2023-04-30T10:21:34;15.57;;;14.77;;
11431;SDS011;5772;50.940;6.782;2023-04-30T10:23:59;16.00;;;15.27;;
11431;SDS011;5772;50.940;6.782;2023-04-30T10:26:25;16.73;;;15.70;;
11431;SDS011;5772;50.940;6.782;2023-04-30T10:28:52;15.25;;;14.55;;
11431;SDS011;5772;50.940;6.782;2023-04-30T10:31:18;15.02;;;14.25;;
11431;SDS011;5772;50.940;6.782;2023-04-30T10:33:45;15.90;;;14.90;;
11431;SDS011;5772;50.940;6.782;2023-04-30T10:36:17;15.07;;;14.23;;
11431;SDS011;5772;50.940;6.782;2023-04-30T10:38:47;15.70;;;14.93;;
11431;SDS011;5772;50.940;6.782;2023-04-30T10:41:12;17.00;;;16.08;;
11431;SDS011;5772;50.940;6.782;2023-04-30T10:43:38;14.80;;;14.07;;
11431;SDS011;5772;50.940;6.782;2023-04-30T10:46:05;16.25;;;15.30;;
11431;SDS011;5772;50.940;6.782;2023-04-30T10:48:32;16.05;;;15.35;;
11431;SDS011;5772;50.940;6.782;2023-04-30T10:50:58;16.83;;;15.95;;
11431;SDS011;5772;50.940;6.782;2023-04-30T10:53:24;16.05;;;15.25;;
11431;SDS011;5772;50.940;6.782;2023-04-30T10:55:51;15.50;;;14.70;;
11431;SDS011;5772;50.940;6.782;2023-04-30T10:58:24;16.20;;;15.40;;
11431;SDS011;5772;50.940;6.782;2023-04-30T11:00:50;16.05;;;15.38;;
11431;SDS011;5772;50.940;6.782;2023-04-30T11:03:17;15.68;;;14.98;;
11431;SDS011;5772;50.940;6.782;2023-04-30T11:05:46;16.77;;;16.00;;
11431;SDS011;5772;50.940;6.782;2023-04-30T11:08:11;13.85;;;13.35;;
11431;SDS011;5772;50.940;6.782;2023-04-30T11:10:37;15.77;;;15.07;;
11431;SDS011;5772;50.940;6.782;2023-04-30T11:13:03;15.48;;;14.77;;
11431;SDS011;5772;50.940;6.782;2023-04-30T11:15:32;14.27;;;13.68;;
11431;SDS011;5772;50.940;6.782;2023-04-30T11:17:58;16.77;;;15.98;;
11431;SDS011;5772;50.940;6.782;2023-04-30T11:20:25;21.25;;;19.75;;
11431;SDS011;5772;50.940;6.782;2023-04-30T11:25:38;40.30;;;32.28;;
11431;SDS011;5772;50.940;6.782;2023-04-30T11:28:04;25.67;;;23.65;;
11431;SDS011;5772;50.940;6.782;2023-04-30T11:30:29;17.60;;;16.70;;
11431;SDS011;5772;50.940;6.782;2023-04-30T11:32:55;19.23;;;18.13;;
11431;SDS011;5772;50.940;6.782;2023-04-30T11:35:25;15.90;;;15.25;;
11431;SDS011;5772;50.940;6.782;2023-04-30T11:37:53;15.40;;;14.70;;
11431;SDS011;5772;50.940;6.782;2023-04-30T11:40:19;15.18;;;14.57;;
11431;SDS011;5772;50.940;6.782;2023-04-30T11:42:44;16.05;;;15.45;;
11431;SDS011;5772;50.940;6.782;2023-04-30T11:45:11;15.52;;;14.82;;
11431;SDS011;5772;50.940;6.782;2023-04-30T11:47:38;14.95;;;14.02;;
11431;SDS011;5772;50.940;6.782;2023-04-30T11:50:04;14.52;;;13.85;;
11431;SDS011;5772;50.940;6.782;2023-04-30T11:52:31;14.35;;;13.55;;
11431;SDS011;5772;50.940;6.782;2023-04-30T11:54:57;13.73;;;13.23;;
11431;SDS011;5772;50.940;6.782;2023-04-30T11:57:22;14.68;;;14.07;;
11431;SDS011;5772;50.940;6.782;2023-04-30T11:59:48;14.73;;;14.15;;
11431;SDS011;5772;50.940;6.782;2023-04-30T12:02:13;14.63;;;14.02;;
11431;SDS011;5772;50.940;6.782;2023-04-30T12:04:40;13.65;;;13.15;;
11431;SDS011;5772;50.940;6.782;2023-04-30T12:07:07;15.10;;;14.45;;
11431;SDS011;5772;50.940;6.782;2023-04-30T12:09:33;16.85;;;15.95;;
11431;SDS011;5772;50.940;6.782;2023-04-30T12:12:24;14.32;;;13.77;;
11431;SDS011;5772;50.940;6.782;2023-04-30T12:14:50;14.13;;;13.52;;
11431;SDS011;5772;50.940;6.782;2023-04-30T12:17:28;14.95;;;14.25;;
11431;SDS011;5772;50.940;6.782;2023-04-30T12:19:54;14.73;;;14.13;;
11431;SDS011;5772;50.940;6.782;2023-04-30T12:22:19;15.80;;;15.20;;
11431;SDS011;5772;50.940;6.782;2023-04-30T12:24:46;15.95;;;15.35;;
11431;SDS011;5772;50.940;6.782;2023-04-30T12:27:13;15.52;;;14.93;;
11431;SDS011;5772;50.940;6.782;2023-04-30T12:29:39;15.82;;;15.13;;
11431;SDS011;5772;50.940;6.782;2023-04-30T12:32:04;16.40;;;15.75;;
11431;SDS011;5772;50.940;6.782;2023-04-30T12:34:30;18.33;;;17.40;;
11431;SDS011;5772;50.940;6.782;2023-04-30T12:36:56;16.08;;;15.43;;
11431;SDS011;5772;50.940;6.782;2023-04-30T12:39:22;17.70;;;17.00;;
11431;SDS011;5772;50.940;6.782;2023-04-30T12:41:48;17.33;;;16.63;;
11431;SDS011;5772;50.940;6.782;2023-04-30T12:44:17;17.40;;;16.50;;
11431;SDS011;5772;50.940;6.782;2023-04-30T12:46:44;16.92;;;16.13;;
11431;SDS011;5772;50.940;6.782;2023-04-30T12:49:09;16.92;;;15.98;;
11431;SDS011;5772;50.940;6.782;2023-04-30T12:51:35;14.82;;;14.23;;
11431;SDS011;5772;50.940;6.782;2023-04-30T12:54:00;14.70;;;14.10;;
11431;SDS011;5772;50.940;6.782;2023-04-30T12:56:25;17.27;;;16.58;;
11431;SDS011;5772;50.940;6.782;2023-04-30T12:58:52;18.15;;;17.45;;
11431;SDS011;5772;50.940;6.782;2023-04-30T13:01:18;15.50;;;14.90;;
11431;SDS011;5772;50.940;6.782;2023-04-30T13:03:44;15.40;;;14.82;;
11431;SDS011;5772;50.940;6.782;2023-04-30T13:06:09;13.95;;;13.45;;
11431;SDS011;5772;50.940;6.782;2023-04-30T13:08:35;15.45;;;14.85;;
11431;SDS011;5772;50.940;6.782;2023-04-30T13:11:00;14.07;;;13.50;;
11431;SDS011;5772;50.940;6.782;2023-04-30T13:13:26;14.68;;;14.07;;
11431;SDS011;5772;50.940;6.782;2023-04-30T13:15:53;15.07;;;14.50;;
11431;SDS011;5772;50.940;6.782;2023-04-30T13:18:18;16.20;;;15.48;;
11431;SDS011;5772;50.940;6.782;2023-04-30T13:20:43;15.77;;;15.07;;
11431;SDS011;5772;50.940;6.782;2023-04-30T13:23:09;18.20;;;17.50;;
11431;SDS011;5772;50.940;6.782;2023-04-30T13:25:34;18.10;;;17.40;;
11431;SDS011;5772;50.940;6.782;2023-04-30T13:28:00;17.40;;;16.70;;
11431;SDS011;5772;50.940;6.782;2023-04-30T13:30:25;18.10;;;17.40;;
11431;SDS011;5772;50.940;6.782;2023-04-30T13:32:52;17.90;;;17.20;;
11431;SDS011;5772;50.940;6.782;2023-04-30T13:35:17;17.33;;;16.63;;
11431;SDS011;5772;50.940;6.782;2023-04-30T13:37:43;18.80;;;17.58;;
11431;SDS011;5772;50.940;6.782;2023-04-30T13:40:08;20.77;;;19.33;;
11431;SDS011;5772;50.940;6.782;2023-04-30T13:42:35;17.95;;;17.08;;
11431;SDS011;5772;50.940;6.782;2023-04-30T13:45:01;17.00;;;16.30;;
11431;SDS011;5772;50.940;6.782;2023-04-30T13:47:26;16.77;;;16.08;;
11431;SDS011;5772;50.940;6.782;2023-04-30T13:49:53;16.33;;;15.63;;
11431;SDS011;5772;50.940;6.782;2023-04-30T13:52:18;14.07;;;13.48;;
11431;SDS011;5772;50.940;6.782;2023-04-30T13:54:43;14.35;;;13.82;;
11431;SDS011;5772;50.940;6.782;2023-04-30T13:57:09;16.25;;;15.55;;
11431;SDS011;5772;50.940;6.782;2023-04-30T13:59:34;15.10;;;14.50;;
11431;SDS011;5772;50.940;6.782;2023-04-30T14:01:59;14.95;;;14.35;;
11431;SDS011;5772;50.940;6.782;2023-04-30T14:04:25;14.57;;;13.98;;
11431;SDS011;5772;50.940;6.782;2023-04-30T14:06:51;15.90;;;15.25;;
11431;SDS011;5772;50.940;6.782;2023-04-30T14:09:18;16.05;;;15.35;;
11431;SDS011;5772;50.940;6.782;2023-04-30T14:11:43;16.10;;;15.50;;
11431;SDS011;5772;50.940;6.782;2023-04-30T14:14:09;14.60;;;14.00;;
11431;SDS011;5772;50.940;6.782;2023-04-30T14:16:34;15.43;;;14.82;;
11431;SDS011;5772;50.940;6.782;2023-04-30T14:18:59;15.85;;;15.25;;
11431;SDS011;5772;50.940;6.782;2023-04-30T14:21:25;15.77;;;15.18;;
11431;SDS011;5772;50.940;6.782;2023-04-30T14:23:52;15.77;;;15.07;;
11431;SDS011;5772;50.940;6.782;2023-04-30T14:26:17;15.13;;;14.52;;
11431;SDS011;5772;50.940;6.782;2023-04-30T14:28:42;16.55;;;15.90;;
11431;SDS011;5772;50.940;6.782;2023-04-30T14:31:08;16.08;;;15.35;;
11431;SDS011;5772;50.940;6.782;2023-04-30T14:33:33;15.05;;;14.45;;